Hunnewell, Kansas
Current Conditions -  °F | °C
As of 5:54 PM on Sunday 25 Jan 2015 (Local Time) from KWLD Reporting Station
Clear Clear  
Wind Chill: 39°   Ceiling: Unl
Heat Index: 45°   Visibility: 10mi
Dew Point: 30°   Wind: 14mph
Humidity: 56%   Direction: 360°N
Pressure: 30.1"   Gusts: NA
Location:  37.0644°N, 97.4266°W
Report Text: KWLD 252354Z AUTO 36012KT 10SM CLR 07/M01 A3010 RMK AO2 SLP196 T00721011 10117 20072 53026
Loading
Personal Weather Stations






























Interactive Weather Map New forecast layout! Learn more

10-Day Weather Forecast

Advertisements
Track Severe Weather on mobile